createdAt,value
2023-07-21T05:29:35.275Z,2.45
2023-07-21T05:32:20.089Z,2.13
2023-07-21T05:35:02.978Z,2.20
2023-07-21T05:37:31.626Z,1.80
2023-07-21T05:40:18.828Z,2.63
2023-07-21T05:42:50.891Z,2.38
2023-07-21T05:45:25.253Z,2.25
2023-07-21T05:47:53.389Z,2.40
2023-07-21T05:50:39.963Z,2.13
2023-07-21T05:53:13.303Z,1.92
2023-07-21T05:55:45.978Z,1.80
2023-07-21T05:58:30.976Z,2.03
2023-07-21T06:00:59.513Z,1.60
2023-07-21T06:03:33.788Z,1.95
2023-07-21T06:06:05.541Z,2.10
2023-07-21T06:08:37.024Z,2.17
2023-07-21T06:11:11.635Z,2.30
2023-07-21T06:16:58.165Z,2.10
2023-07-21T06:19:44.089Z,2.20
2023-07-21T06:22:25.118Z,2.65
2023-07-21T06:24:56.406Z,2.60
2023-07-21T06:29:58.989Z,2.10
2023-07-21T06:32:39.908Z,1.80
2023-07-21T06:35:09.225Z,2.15
2023-07-21T06:37:48.034Z,1.92
2023-07-21T06:40:20.794Z,2.60
2023-07-21T06:42:50.416Z,2.50
2023-07-21T06:45:19.881Z,2.10
2023-07-21T06:47:50.546Z,2.70
2023-07-21T06:50:19.130Z,2.13
2023-07-21T06:58:57.868Z,2.40
2023-07-21T07:01:28.773Z,2.55
2023-07-21T07:10:13.616Z,2.67
2023-07-21T07:12:57.566Z,2.83
2023-07-21T07:15:35.107Z,2.47
2023-07-21T07:18:17.593Z,2.70
2023-07-21T07:21:08.811Z,3.13
2023-07-21T07:23:39.384Z,3.08
2023-07-21T07:26:17.114Z,3.22
2023-07-21T07:29:13.870Z,2.80
2023-07-21T07:32:07.613Z,2.40
2023-07-21T07:34:39.532Z,2.70
2023-07-21T07:37:26.005Z,2.40
2023-07-21T07:39:58.828Z,2.38
2023-07-21T07:42:27.424Z,2.85
2023-07-21T07:45:04.284Z,2.88
2023-07-21T07:47:43.570Z,3.30
2023-07-21T07:50:23.417Z,2.83
2023-07-21T07:52:54.068Z,3.33
2023-07-21T07:58:46.895Z,3.17
2023-07-21T08:01:27.301Z,2.78
2023-07-21T08:03:58.416Z,3.67
2023-07-21T08:06:37.829Z,3.42
2023-07-21T08:09:43.512Z,3.80
2023-07-21T08:12:40.652Z,3.72
2023-07-21T08:15:16.681Z,2.75
2023-07-21T08:17:57.637Z,4.65
2023-07-21T08:26:30.007Z,3.78
2023-07-21T08:32:35.886Z,2.63
2023-07-21T10:21:56.667Z,2.50
2023-07-21T10:27:38.739Z,2.35
2023-07-21T10:33:29.806Z,2.40
2023-07-21T10:51:25.623Z,2.42
2023-07-21T10:54:02.612Z,2.13
2023-07-21T11:06:09.622Z,2.50
2023-07-21T11:18:38.651Z,3.20
2023-07-21T11:24:40.069Z,2.25
2023-07-21T11:40:17.150Z,2.05
2023-07-21T11:45:59.318Z,1.90
2023-07-21T11:58:11.814Z,2.20
2023-07-21T12:45:48.411Z,1.50
2023-07-21T13:04:31.333Z,1.45
2023-07-21T13:32:29.257Z,1.23
